sensor_id;sensor_type;location;lat;lon;timestamp;temperature;humidity
11894;DHT22;6006;49.696;8.662;2023-03-23T00:00:52;14.10;1.00
11894;DHT22;6006;49.696;8.662;2023-03-23T00:03:21;14.20;1.00
11894;DHT22;6006;49.696;8.662;2023-03-23T00:05:50;14.30;1.00
11894;DHT22;6006;49.696;8.662;2023-03-23T00:08:17;14.30;1.00
11894;DHT22;6006;49.696;8.662;2023-03-23T00:10:48;14.30;1.00
11894;DHT22;6006;49.696;8.662;2023-03-23T00:13:15;14.30;1.00
11894;DHT22;6006;49.696;8.662;2023-03-23T00:15:45;14.30;1.00
11894;DHT22;6006;49.696;8.662;2023-03-23T00:18:14;14.20;1.00
11894;DHT22;6006;49.696;8.662;2023-03-23T00:20:48;14.20;1.00
11894;DHT22;6006;49.696;8.662;2023-03-23T00:23:17;14.30;1.00
11894;DHT22;6006;49.696;8.662;2023-03-23T00:25:47;14.30;1.00
11894;DHT22;6006;49.696;8.662;2023-03-23T00:28:15;14.20;1.00
11894;DHT22;6006;49.696;8.662;2023-03-23T00:30:42;14.20;1.00
11894;DHT22;6006;49.696;8.662;2023-03-23T00:33:11;14.20;1.00
11894;DHT22;6006;49.696;8.662;2023-03-23T00:35:40;14.20;1.00
11894;DHT22;6006;49.696;8.662;2023-03-23T00:38:08;14.20;1.00
11894;DHT22;6006;49.696;8.662;2023-03-23T00:40:35;14.10;1.00
11894;DHT22;6006;49.696;8.662;2023-03-23T00:43:03;14.20;1.00
11894;DHT22;6006;49.696;8.662;2023-03-23T00:45:30;14.20;1.00
11894;DHT22;6006;49.696;8.662;2023-03-23T00:48:00;14.20;1.00
11894;DHT22;6006;49.696;8.662;2023-03-23T00:50:28;14.20;1.00
11894;DHT22;6006;49.696;8.662;2023-03-23T00:52:55;14.20;1.00
11894;DHT22;6006;49.696;8.662;2023-03-23T00:55:24;14.30;1.00
11894;DHT22;6006;49.696;8.662;2023-03-23T00:57:51;14.30;1.00
11894;DHT22;6006;49.696;8.662;2023-03-23T01:00:19;14.30;1.00
11894;DHT22;6006;49.696;8.662;2023-03-23T01:02:46;14.30;1.00
11894;DHT22;6006;49.696;8.662;2023-03-23T01:05:13;14.30;1.00
11894;DHT22;6006;49.696;8.662;2023-03-23T01:07:41;14.20;1.00
11894;DHT22;6006;49.696;8.662;2023-03-23T01:10:11;14.30;1.00
11894;DHT22;6006;49.696;8.662;2023-03-23T01:12:43;14.20;1.00
11894;DHT22;6006;49.696;8.662;2023-03-23T01:15:14;14.20;1.00
11894;DHT22;6006;49.696;8.662;2023-03-23T01:17:42;14.20;1.00
11894;DHT22;6006;49.696;8.662;2023-03-23T01:20:09;14.20;1.00
11894;DHT22;6006;49.696;8.662;2023-03-23T01:22:37;14.20;1.00
11894;DHT22;6006;49.696;8.662;2023-03-23T01:25:05;14.20;1.00
11894;DHT22;6006;49.696;8.662;2023-03-23T01:27:32;14.20;1.00
11894;DHT22;6006;49.696;8.662;2023-03-23T01:30:00;14.20;1.00
11894;DHT22;6006;49.696;8.662;2023-03-23T01:32:28;14.10;1.00
11894;DHT22;6006;49.696;8.662;2023-03-23T01:34:55;14.10;1.00
11894;DHT22;6006;49.696;8.662;2023-03-23T01:37:22;14.00;1.00
11894;DHT22;6006;49.696;8.662;2023-03-23T01:39:52;14.10;1.00
11894;DHT22;6006;49.696;8.662;2023-03-23T01:42:21;14.10;1.00
11894;DHT22;6006;49.696;8.662;2023-03-23T01:45:23;14.10;1.00
11894;DHT22;6006;49.696;8.662;2023-03-23T01:47:58;14.10;1.00
11894;DHT22;6006;49.696;8.662;2023-03-23T01:50:27;14.10;1.00
11894;DHT22;6006;49.696;8.662;2023-03-23T01:52:56;14.00;1.00
11894;DHT22;6006;49.696;8.662;2023-03-23T01:55:25;14.10;1.00
11894;DHT22;6006;49.696;8.662;2023-03-23T01:57:54;14.10;1.00
11894;DHT22;6006;49.696;8.662;2023-03-23T02:00:23;14.10;1.00
11894;DHT22;6006;49.696;8.662;2023-03-23T02:02:51;14.10;1.00
11894;DHT22;6006;49.696;8.662;2023-03-23T02:05:24;14.20;1.00
11894;DHT22;6006;49.696;8.662;2023-03-23T02:07:54;14.20;1.00
11894;DHT22;6006;49.696;8.662;2023-03-23T02:10:24;14.10;1.00
11894;DHT22;6006;49.696;8.662;2023-03-23T02:12:51;14.00;1.00
11894;DHT22;6006;49.696;8.662;2023-03-23T02:15:18;14.00;1.00
11894;DHT22;6006;49.696;8.662;2023-03-23T02:17:53;14.00;1.00
11894;DHT22;6006;49.696;8.662;2023-03-23T02:20:33;14.00;1.00
11894;DHT22;6006;49.696;8.662;2023-03-23T02:26:03;14.00;1.00
11894;DHT22;6006;49.696;8.662;2023-03-23T02:28:53;14.00;1.00
11894;DHT22;6006;49.696;8.662;2023-03-23T02:31:29;14.00;1.00
11894;DHT22;6006;49.696;8.662;2023-03-23T02:34:06;13.90;1.00
11894;DHT22;6006;49.696;8.662;2023-03-23T02:36:36;13.90;1.00
11894;DHT22;6006;49.696;8.662;2023-03-23T02:39:08;14.00;1.00
11894;DHT22;6006;49.696;8.662;2023-03-23T02:41:41;13.90;1.00
11894;DHT22;6006;49.696;8.662;2023-03-23T02:44:09;13.90;1.00
11894;DHT22;6006;49.696;8.662;2023-03-23T02:46:37;13.80;1.00
11894;DHT22;6006;49.696;8.662;2023-03-23T02:49:08;13.80;1.00
11894;DHT22;6006;49.696;8.662;2023-03-23T02:51:37;13.70;1.00
11894;DHT22;6006;49.696;8.662;2023-03-23T02:54:05;13.70;1.00
11894;DHT22;6006;49.696;8.662;2023-03-23T02:56:34;13.70;1.00
11894;DHT22;6006;49.696;8.662;2023-03-23T02:59:01;13.70;1.00
11894;DHT22;6006;49.696;8.662;2023-03-23T03:01:51;13.70;1.00
11894;DHT22;6006;49.696;8.662;2023-03-23T03:04:22;13.70;1.00
11894;DHT22;6006;49.696;8.662;2023-03-23T03:09:47;13.70;1.00
11894;DHT22;6006;49.696;8.662;2023-03-23T03:12:21;13.60;1.00
11894;DHT22;6006;49.696;8.662;2023-03-23T03:14:57;13.60;1.00
11894;DHT22;6006;49.696;8.662;2023-03-23T03:17:25;13.70;1.00
11894;DHT22;6006;49.696;8.662;2023-03-23T03:19:57;13.90;1.00
11894;DHT22;6006;49.696;8.662;2023-03-23T03:22:26;13.80;1.00
11894;DHT22;6006;49.696;8.662;2023-03-23T03:24:56;13.80;1.00
11894;DHT22;6006;49.696;8.662;2023-03-23T03:27:24;13.80;1.00
11894;DHT22;6006;49.696;8.662;2023-03-23T03:29:55;13.90;1.00
11894;DHT22;6006;49.696;8.662;2023-03-23T03:32:28;13.90;1.00
11894;DHT22;6006;49.696;8.662;2023-03-23T03:35:00;13.70;1.00
11894;DHT22;6006;49.696;8.662;2023-03-23T03:37:27;13.70;1.00
11894;DHT22;6006;49.696;8.662;2023-03-23T03:39:53;13.60;1.00
11894;DHT22;6006;49.696;8.662;2023-03-23T03:42:21;13.60;1.00
11894;DHT22;6006;49.696;8.662;2023-03-23T03:44:48;13.60;1.00
11894;DHT22;6006;49.696;8.662;2023-03-23T03:47:15;13.50;1.00
11894;DHT22;6006;49.696;8.662;2023-03-23T03:49:41;13.50;1.00
11894;DHT22;6006;49.696;8.662;2023-03-23T03:52:10;13.50;1.00
11894;DHT22;6006;49.696;8.662;2023-03-23T03:54:36;13.40;1.00
11894;DHT22;6006;49.696;8.662;2023-03-23T03:57:03;13.50;1.00
11894;DHT22;6006;49.696;8.662;2023-03-23T03:59:30;13.60;1.00
11894;DHT22;6006;49.696;8.662;2023-03-23T04:01:58;13.60;1.00
11894;DHT22;6006;49.696;8.662;2023-03-23T04:04:24;13.70;1.00
11894;DHT22;6006;49.696;8.662;2023-03-23T04:06:52;13.70;1.00
11894;DHT22;6006;49.696;8.662;2023-03-23T04:09:20;13.70;1.00
11894;DHT22;6006;49.696;8.662;2023-03-23T04:11:47;13.70;1.00
11894;DHT22;6006;49.696;8.662;2023-03-23T04:14:14;13.80;1.00
11894;DHT22;6006;49.696;8.662;2023-03-23T04:16:41;13.80;1.00
11894;DHT22;6006;49.696;8.662;2023-03-23T04:19:09;13.80;1.00
11894;DHT22;6006;49.696;8.662;2023-03-23T04:21:37;13.80;1.00
11894;DHT22;6006;49.696;8.662;2023-03-23T04:24:05;13.80;1.00
11894;DHT22;6006;49.696;8.662;2023-03-23T04:26:33;13.80;1.00
11894;DHT22;6006;49.696;8.662;2023-03-23T04:29:00;13.80;1.00
11894;DHT22;6006;49.696;8.662;2023-03-23T04:31:28;13.80;1.00
11894;DHT22;6006;49.696;8.662;2023-03-23T04:33:55;13.70;1.00
11894;DHT22;6006;49.696;8.662;2023-03-23T04:36:23;13.70;1.00
11894;DHT22;6006;49.696;8.662;2023-03-23T04:38:50;13.60;1.00
11894;DHT22;6006;49.696;8.662;2023-03-23T04:41:20;13.60;1.00
11894;DHT22;6006;49.696;8.662;2023-03-23T04:43:48;13.60;1.00
11894;DHT22;6006;49.696;8.662;2023-03-23T04:46:18;13.60;1.00
11894;DHT22;6006;49.696;8.662;2023-03-23T04:48:47;13.60;22.20
11894;DHT22;6006;49.696;8.662;2023-03-23T04:51:14;13.50;40.20
11894;DHT22;6006;49.696;8.662;2023-03-23T04:53:40;13.60;1.00
11894;DHT22;6006;49.696;8.662;2023-03-23T04:56:07;13.60;1.00
11894;DHT22;6006;49.696;8.662;2023-03-23T04:58:34;13.60;1.00
11894;DHT22;6006;49.696;8.662;2023-03-23T05:01:02;13.60;1.00
11894;DHT22;6006;49.696;8.662;2023-03-23T05:03:30;13.60;1.00
11894;DHT22;6006;49.696;8.662;2023-03-23T05:06:01;13.60;1.00
11894;DHT22;6006;49.696;8.662;2023-03-23T05:08:28;13.60;1.00
11894;DHT22;6006;49.696;8.662;2023-03-23T05:10:58;13.60;1.00
11894;DHT22;6006;49.696;8.662;2023-03-23T05:13:25;13.50;45.80
11894;DHT22;6006;49.696;8.662;2023-03-23T05:15:53;13.50;88.70
11894;DHT22;6006;49.696;8.662;2023-03-23T05:18:21;13.50;99.90
11894;DHT22;6006;49.696;8.662;2023-03-23T05:20:49;13.50;99.90
11894;DHT22;6006;49.696;8.662;2023-03-23T05:23:18;13.40;99.90
11894;DHT22;6006;49.696;8.662;2023-03-23T05:25:52;13.40;99.90
11894;DHT22;6006;49.696;8.662;2023-03-23T05:28:19;13.40;99.90
11894;DHT22;6006;49.696;8.662;2023-03-23T05:30:48;13.40;99.90
11894;DHT22;6006;49.696;8.662;2023-03-23T05:33:15;13.30;99.90
11894;DHT22;6006;49.696;8.662;2023-03-23T05:35:43;13.20;1.00
11894;DHT22;6006;49.696;8.662;2023-03-23T05:38:12;13.20;1.00
11894;DHT22;6006;49.696;8.662;2023-03-23T05:40:40;13.20;1.00
11894;DHT22;6006;49.696;8.662;2023-03-23T05:43:06;13.20;1.00
11894;DHT22;6006;49.696;8.662;2023-03-23T05:45:33;13.20;1.00
11894;DHT22;6006;49.696;8.662;2023-03-23T05:48:00;13.30;1.00
11894;DHT22;6006;49.696;8.662;2023-03-23T05:50:27;13.20;1.00
11894;DHT22;6006;49.696;8.662;2023-03-23T05:52:55;13.30;24.20
11894;DHT22;6006;49.696;8.662;2023-03-23T05:55:22;13.30;26.80
11894;DHT22;6006;49.696;8.662;2023-03-23T05:57:49;13.30;99.90
11894;DHT22;6006;49.696;8.662;2023-03-23T06:00:16;13.40;1.00
11894;DHT22;6006;49.696;8.662;2023-03-23T06:02:46;13.40;2.00
11894;DHT22;6006;49.696;8.662;2023-03-23T06:05:14;13.40;25.30
11894;DHT22;6006;49.696;8.662;2023-03-23T06:07:41;13.50;60.00
11894;DHT22;6006;49.696;8.662;2023-03-23T06:10:11;13.40;11.00
11894;DHT22;6006;49.696;8.662;2023-03-23T06:12:38;13.50;1.00
11894;DHT22;6006;49.696;8.662;2023-03-23T06:15:07;13.50;99.90
11894;DHT22;6006;49.696;8.662;2023-03-23T06:17:35;13.50;26.90
11894;DHT22;6006;49.696;8.662;2023-03-23T06:20:02;13.40;99.90
11894;DHT22;6006;49.696;8.662;2023-03-23T06:22:35;13.50;64.20
11894;DHT22;6006;49.696;8.662;2023-03-23T06:25:02;13.40;99.90
11894;DHT22;6006;49.696;8.662;2023-03-23T06:27:30;13.40;74.10
11894;DHT22;6006;49.696;8.662;2023-03-23T06:29:57;13.50;99.90
11894;DHT22;6006;49.696;8.662;2023-03-23T06:32:25;13.40;75.10
11894;DHT22;6006;49.696;8.662;2023-03-23T06:34:53;13.40;99.90
11894;DHT22;6006;49.696;8.662;2023-03-23T06:37:20;13.40;99.90
11894;DHT22;6006;49.696;8.662;2023-03-23T06:39:47;13.30;99.90
11894;DHT22;6006;49.696;8.662;2023-03-23T06:42:14;13.30;99.90
11894;DHT22;6006;49.696;8.662;2023-03-23T06:44:42;13.30;99.90
11894;DHT22;6006;49.696;8.662;2023-03-23T06:47:09;13.40;99.90
11894;DHT22;6006;49.696;8.662;2023-03-23T06:49:36;13.40;99.90
11894;DHT22;6006;49.696;8.662;2023-03-23T06:52:03;13.40;99.90
11894;DHT22;6006;49.696;8.662;2023-03-23T06:54:31;13.30;99.90
11894;DHT22;6006;49.696;8.662;2023-03-23T06:56:58;13.30;99.90
11894;DHT22;6006;49.696;8.662;2023-03-23T06:59:25;13.30;99.90
11894;DHT22;6006;49.696;8.662;2023-03-23T07:01:53;13.30;1.00
11894;DHT22;6006;49.696;8.662;2023-03-23T07:04:20;13.30;99.90
11894;DHT22;6006;49.696;8.662;2023-03-23T07:06:48;13.30;99.90
11894;DHT22;6006;49.696;8.662;2023-03-23T07:09:16;13.30;99.90
11894;DHT22;6006;49.696;8.662;2023-03-23T07:11:43;13.30;99.90
11894;DHT22;6006;49.696;8.662;2023-03-23T07:14:13;13.20;1.00
11894;DHT22;6006;49.696;8.662;2023-03-23T07:16:40;13.20;1.00
11894;DHT22;6006;49.696;8.662;2023-03-23T07:19:09;13.20;1.00
11894;DHT22;6006;49.696;8.662;2023-03-23T07:21:36;13.30;1.00
11894;DHT22;6006;49.696;8.662;2023-03-23T07:24:03;13.20;1.00
11894;DHT22;6006;49.696;8.662;2023-03-23T07:26:30;13.20;1.00
11894;DHT22;6006;49.696;8.662;2023-03-23T07:28:57;13.20;99.90
11894;DHT22;6006;49.696;8.662;2023-03-23T07:31:24;13.30;99.90
11894;DHT22;6006;49.696;8.662;2023-03-23T07:33:51;13.30;99.90
11894;DHT22;6006;49.696;8.662;2023-03-23T07:36:19;13.20;99.90
11894;DHT22;6006;49.696;8.662;2023-03-23T07:38:46;13.20;99.90
11894;DHT22;6006;49.696;8.662;2023-03-23T07:41:14;13.20;1.00
11894;DHT22;6006;49.696;8.662;2023-03-23T07:43:41;13.20;1.00
11894;DHT22;6006;49.696;8.662;2023-03-23T07:46:08;13.20;1.00
11894;DHT22;6006;49.696;8.662;2023-03-23T07:48:35;13.20;1.00
11894;DHT22;6006;49.696;8.662;2023-03-23T07:51:01;13.30;1.00
11894;DHT22;6006;49.696;8.662;2023-03-23T07:53:30;13.20;1.00
11894;DHT22;6006;49.696;8.662;2023-03-23T07:55:57;13.20;1.00
11894;DHT22;6006;49.696;8.662;2023-03-23T07:58:24;13.20;1.00
11894;DHT22;6006;49.696;8.662;2023-03-23T08:00:52;13.30;1.00
11894;DHT22;6006;49.696;8.662;2023-03-23T08:03:19;13.30;1.00
11894;DHT22;6006;49.696;8.662;2023-03-23T08:05:46;13.30;1.00
11894;DHT22;6006;49.696;8.662;2023-03-23T08:08:14;13.30;1.00
11894;DHT22;6006;49.696;8.662;2023-03-23T08:10:42;13.30;1.00
11894;DHT22;6006;49.696;8.662;2023-03-23T08:13:09;13.30;1.00
11894;DHT22;6006;49.696;8.662;2023-03-23T08:15:35;13.30;1.00
11894;DHT22;6006;49.696;8.662;2023-03-23T08:18:03;13.30;1.00
11894;DHT22;6006;49.696;8.662;2023-03-23T08:20:30;13.30;99.90
11894;DHT22;6006;49.696;8.662;2023-03-23T08:22:58;13.20;99.90
11894;DHT22;6006;49.696;8.662;2023-03-23T08:25:25;13.30;28.90
11894;DHT22;6006;49.696;8.662;2023-03-23T08:27:54;13.30;36.70
11894;DHT22;6006;49.696;8.662;2023-03-23T08:30:21;13.30;13.90
11894;DHT22;6006;49.696;8.662;2023-03-23T08:32:50;13.20;99.90
11894;DHT22;6006;49.696;8.662;2023-03-23T08:35:18;13.20;1.00
11894;DHT22;6006;49.696;8.662;2023-03-23T08:37:46;13.20;1.00
11894;DHT22;6006;49.696;8.662;2023-03-23T08:40:18;13.20;1.00
11894;DHT22;6006;49.696;8.662;2023-03-23T08:42:46;13.10;1.00
11894;DHT22;6006;49.696;8.662;2023-03-23T08:45:18;13.10;99.90
11894;DHT22;6006;49.696;8.662;2023-03-23T08:47:45;13.10;1.00
11894;DHT22;6006;49.696;8.662;2023-03-23T08:50:20;13.10;99.90
11894;DHT22;6006;49.696;8.662;2023-03-23T08:52:48;13.10;99.90
11894;DHT22;6006;49.696;8.662;2023-03-23T08:55:16;13.10;99.90
11894;DHT22;6006;49.696;8.662;2023-03-23T08:57:43;13.10;1.00
11894;DHT22;6006;49.696;8.662;2023-03-23T09:00:12;13.00;1.00
11894;DHT22;6006;49.696;8.662;2023-03-23T09:02:45;13.00;99.90
11894;DHT22;6006;49.696;8.662;2023-03-23T09:05:13;13.10;99.90
11894;DHT22;6006;49.696;8.662;2023-03-23T09:07:41;13.10;1.00
11894;DHT22;6006;49.696;8.662;2023-03-23T09:10:09;13.00;99.50
11894;DHT22;6006;49.696;8.662;2023-03-23T09:12:36;12.90;99.90
11894;DHT22;6006;49.696;8.662;2023-03-23T09:15:04;13.00;99.90
11894;DHT22;6006;49.696;8.662;2023-03-23T09:17:35;13.00;99.90
11894;DHT22;6006;49.696;8.662;2023-03-23T09:20:06;13.00;1.00
11894;DHT22;6006;49.696;8.662;2023-03-23T09:22:37;13.00;1.00
11894;DHT22;6006;49.696;8.662;2023-03-23T09:25:05;13.00;1.00
11894;DHT22;6006;49.696;8.662;2023-03-23T09:27:32;13.10;1.00
11894;DHT22;6006;49.696;8.662;2023-03-23T09:29:59;12.80;99.90
11894;DHT22;6006;49.696;8.662;2023-03-23T09:32:27;13.10;1.00
11894;DHT22;6006;49.696;8.662;2023-03-23T09:34:54;13.10;99.90
11894;DHT22;6006;49.696;8.662;2023-03-23T09:37:23;13.10;1.00
11894;DHT22;6006;49.696;8.662;2023-03-23T09:39:50;13.20;1.00
11894;DHT22;6006;49.696;8.662;2023-03-23T09:42:31;13.20;1.00
11894;DHT22;6006;49.696;8.662;2023-03-23T09:45:10;13.40;1.00
11894;DHT22;6006;49.696;8.662;2023-03-23T09:47:46;13.50;99.90
11894;DHT22;6006;49.696;8.662;2023-03-23T09:50:17;13.60;99.90
11894;DHT22;6006;49.696;8.662;2023-03-23T09:52:52;13.80;99.90
11894;DHT22;6006;49.696;8.662;2023-03-23T09:55:21;13.90;1.00
11894;DHT22;6006;49.696;8.662;2023-03-23T09:57:54;14.00;1.00
11894;DHT22;6006;49.696;8.662;2023-03-23T10:00:26;14.00;99.90
11894;DHT22;6006;49.696;8.662;2023-03-23T10:03:00;14.10;99.90
11894;DHT22;6006;49.696;8.662;2023-03-23T10:05:34;14.30;99.90
11894;DHT22;6006;49.696;8.662;2023-03-23T10:08:09;14.30;99.90
11894;DHT22;6006;49.696;8.662;2023-03-23T10:10:48;14.30;99.90
11894;DHT22;6006;49.696;8.662;2023-03-23T10:13:25;14.20;1.00
11894;DHT22;6006;49.696;8.662;2023-03-23T10:15:55;14.20;1.00
11894;DHT22;6006;49.696;8.662;2023-03-23T10:18:27;14.20;1.00
11894;DHT22;6006;49.696;8.662;2023-03-23T10:20:58;14.00;99.90
11894;DHT22;6006;49.696;8.662;2023-03-23T10:23:44;14.00;1.00
11894;DHT22;6006;49.696;8.662;2023-03-23T10:26:18;14.10;99.90
11894;DHT22;6006;49.696;8.662;2023-03-23T10:28:51;14.00;99.90
11894;DHT22;6006;49.696;8.662;2023-03-23T10:31:24;14.00;1.00
11894;DHT22;6006;49.696;8.662;2023-03-23T10:33:54;13.90;1.00
11894;DHT22;6006;49.696;8.662;2023-03-23T10:36:26;13.80;5.20
11894;DHT22;6006;49.696;8.662;2023-03-23T10:39:00;13.90;99.90
11894;DHT22;6006;49.696;8.662;2023-03-23T10:41:29;14.00;1.00
11894;DHT22;6006;49.696;8.662;2023-03-23T10:43:56;13.80;1.00
11894;DHT22;6006;49.696;8.662;2023-03-23T10:46:29;13.80;1.00
11894;DHT22;6006;49.696;8.662;2023-03-23T10:49:02;13.80;28.80
11894;DHT22;6006;49.696;8.662;2023-03-23T10:51:34;13.70;1.00
11894;DHT22;6006;49.696;8.662;2023-03-23T10:54:04;13.70;99.90
11894;DHT22;6006;49.696;8.662;2023-03-23T10:56:36;13.60;99.90
11894;DHT22;6006;49.696;8.662;2023-03-23T10:59:14;13.60;99.90
11894;DHT22;6006;49.696;8.662;2023-03-23T11:01:44;13.70;1.00
11894;DHT22;6006;49.696;8.662;2023-03-23T11:04:13;13.70;1.00
11894;DHT22;6006;49.696;8.662;2023-03-23T11:06:44;13.80;99.90
11894;DHT22;6006;49.696;8.662;2023-03-23T11:09:14;13.80;94.70
11894;DHT22;6006;49.696;8.662;2023-03-23T11:11:48;13.90;1.00
11894;DHT22;6006;49.696;8.662;2023-03-23T11:14:17;13.80;99.90
11894;DHT22;6006;49.696;8.662;2023-03-23T11:16:46;13.80;1.00
11894;DHT22;6006;49.696;8.662;2023-03-23T11:19:22;13.80;39.30
11894;DHT22;6006;49.696;8.662;2023-03-23T11:21:51;13.80;1.00
11894;DHT22;6006;49.696;8.662;2023-03-23T11:24:22;13.80;1.00
11894;DHT22;6006;49.696;8.662;2023-03-23T11:26:49;13.70;41.50
11894;DHT22;6006;49.696;8.662;2023-03-23T11:29:20;13.60;99.90
11894;DHT22;6006;49.696;8.662;2023-03-23T11:31:49;13.50;1.00
11894;DHT22;6006;49.696;8.662;2023-03-23T11:34:20;13.40;99.90
11894;DHT22;6006;49.696;8.662;2023-03-23T11:36:49;13.20;1.00
11894;DHT22;6006;49.696;8.662;2023-03-23T11:39:23;13.10;17.00
11894;DHT22;6006;49.696;8.662;2023-03-23T11:41:50;13.00;99.90
11894;DHT22;6006;49.696;8.662;2023-03-23T11:44:18;13.10;1.00
11894;DHT22;6006;49.696;8.662;2023-03-23T11:46:52;13.10;99.90
11894;DHT22;6006;49.696;8.662;2023-03-23T11:49:39;13.20;1.00
11894;DHT22;6006;49.696;8.662;2023-03-23T11:52:13;13.40;1.00
11894;DHT22;6006;49.696;8.662;2023-03-23T11:54:47;13.40;99.90
11894;DHT22;6006;49.696;8.662;2023-03-23T11:57:17;13.40;1.00
11894;DHT22;6006;49.696;8.662;2023-03-23T11:59:44;13.30;90.60
11894;DHT22;6006;49.696;8.662;2023-03-23T12:02:35;13.30;99.90
11894;DHT22;6006;49.696;8.662;2023-03-23T12:05:28;13.40;99.90
11894;DHT22;6006;49.696;8.662;2023-03-23T12:08:06;13.40;99.90
11894;DHT22;6006;49.696;8.662;2023-03-23T12:10:42;13.40;99.90
11894;DHT22;6006;49.696;8.662;2023-03-23T12:13:24;13.40;1.00
11894;DHT22;6006;49.696;8.662;2023-03-23T12:16:00;13.40;1.00
11894;DHT22;6006;49.696;8.662;2023-03-23T12:18:46;13.40;1.00
11894;DHT22;6006;49.696;8.662;2023-03-23T12:21:21;13.50;1.00
11894;DHT22;6006;49.696;8.662;2023-03-23T12:23:57;13.60;1.00
11894;DHT22;6006;49.696;8.662;2023-03-23T12:26:31;13.60;1.00
11894;DHT22;6006;49.696;8.662;2023-03-23T12:29:16;13.60;1.00
11894;DHT22;6006;49.696;8.662;2023-03-23T12:31:53;13.70;1.00
11894;DHT22;6006;49.696;8.662;2023-03-23T12:34:30;13.90;99.90
11894;DHT22;6006;49.696;8.662;2023-03-23T12:37:12;14.10;1.00
11894;DHT22;6006;49.696;8.662;2023-03-23T12:39:50;14.20;99.90
11894;DHT22;6006;49.696;8.662;2023-03-23T12:42:29;14.40;99.90
11894;DHT22;6006;49.696;8.662;2023-03-23T12:45:06;14.50;99.90
11894;DHT22;6006;49.696;8.662;2023-03-23T12:47:41;14.60;43.20
11894;DHT22;6006;49.696;8.662;2023-03-23T12:50:15;14.60;1.00
11894;DHT22;6006;49.696;8.662;2023-03-23T12:52:48;14.60;99.90
11894;DHT22;6006;49.696;8.662;2023-03-23T12:55:21;14.70;99.90
11894;DHT22;6006;49.696;8.662;2023-03-23T12:57:54;14.90;42.60
11894;DHT22;6006;49.696;8.662;2023-03-23T13:00:27;14.90;1.00
11894;DHT22;6006;49.696;8.662;2023-03-23T13:03:00;14.80;1.00
11894;DHT22;6006;49.696;8.662;2023-03-23T13:05:41;14.70;1.00
11894;DHT22;6006;49.696;8.662;2023-03-23T13:08:15;14.80;1.00
11894;DHT22;6006;49.696;8.662;2023-03-23T13:10:45;14.60;1.00
11894;DHT22;6006;49.696;8.662;2023-03-23T13:13:18;14.70;1.00
11894;DHT22;6006;49.696;8.662;2023-03-23T13:15:56;14.80;1.00
11894;DHT22;6006;49.696;8.662;2023-03-23T13:18:30;14.70;1.00
11894;DHT22;6006;49.696;8.662;2023-03-23T13:21:09;14.80;1.00
11894;DHT22;6006;49.696;8.662;2023-03-23T13:23:42;14.70;1.00
11894;DHT22;6006;49.696;8.662;2023-03-23T13:26:12;14.60;1.00
11894;DHT22;6006;49.696;8.662;2023-03-23T13:28:55;14.70;1.00
11894;DHT22;6006;49.696;8.662;2023-03-23T13:31:26;14.70;1.00
11894;DHT22;6006;49.696;8.662;2023-03-23T13:33:59;14.70;1.00
11894;DHT22;6006;49.696;8.662;2023-03-23T13:36:30;14.70;1.00
11894;DHT22;6006;49.696;8.662;2023-03-23T13:38:59;14.70;1.00
11894;DHT22;6006;49.696;8.662;2023-03-23T13:41:26;14.60;1.00
11894;DHT22;6006;49.696;8.662;2023-03-23T13:44:15;14.60;1.00
11894;DHT22;6006;49.696;8.662;2023-03-23T13:46:54;14.60;1.00
11894;DHT22;6006;49.696;8.662;2023-03-23T13:49:22;14.70;1.00
11894;DHT22;6006;49.696;8.662;2023-03-23T13:52:13;14.70;1.00
11894;DHT22;6006;49.696;8.662;2023-03-23T13:54:44;14.80;1.00
11894;DHT22;6006;49.696;8.662;2023-03-23T13:57:36;14.80;1.00
11894;DHT22;6006;49.696;8.662;2023-03-23T14:00:36;14.80;1.00
11894;DHT22;6006;49.696;8.662;2023-03-23T14:03:10;14.90;1.00
11894;DHT22;6006;49.696;8.662;2023-03-23T14:05:40;14.80;1.00
11894;DHT22;6006;49.696;8.662;2023-03-23T14:08:13;14.80;82.70
11894;DHT22;6006;49.696;8.662;2023-03-23T14:10:43;14.80;5.00
11894;DHT22;6006;49.696;8.662;2023-03-23T14:13:16;14.70;1.00
11894;DHT22;6006;49.696;8.662;2023-03-23T14:15:56;14.60;1.00
11894;DHT22;6006;49.696;8.662;2023-03-23T14:18:26;14.60;1.00
11894;DHT22;6006;49.696;8.662;2023-03-23T14:20:55;14.60;1.00
11894;DHT22;6006;49.696;8.662;2023-03-23T14:23:22;14.60;1.00
11894;DHT22;6006;49.696;8.662;2023-03-23T14:26:00;14.60;1.00
11894;DHT22;6006;49.696;8.662;2023-03-23T14:28:37;14.60;1.00
11894;DHT22;6006;49.696;8.662;2023-03-23T14:31:14;14.60;1.00
11894;DHT22;6006;49.696;8.662;2023-03-23T14:33:41;14.60;99.90
11894;DHT22;6006;49.696;8.662;2023-03-23T14:36:08;14.70;99.90
11894;DHT22;6006;49.696;8.662;2023-03-23T14:38:36;14.70;1.00
11894;DHT22;6006;49.696;8.662;2023-03-23T14:41:05;14.70;99.90
11894;DHT22;6006;49.696;8.662;2023-03-23T14:43:33;14.80;99.90
11894;DHT22;6006;49.696;8.662;2023-03-23T14:46:05;14.90;99.90
11894;DHT22;6006;49.696;8.662;2023-03-23T14:48:35;15.00;99.90
11894;DHT22;6006;49.696;8.662;2023-03-23T14:51:04;15.00;99.90
11894;DHT22;6006;49.696;8.662;2023-03-23T14:53:35;15.00;99.90
11894;DHT22;6006;49.696;8.662;2023-03-23T14:56:06;15.00;99.90
11894;DHT22;6006;49.696;8.662;2023-03-23T14:58:35;15.00;99.90
11894;DHT22;6006;49.696;8.662;2023-03-23T15:01:06;15.00;99.90
11894;DHT22;6006;49.696;8.662;2023-03-23T15:03:37;15.00;99.90
11894;DHT22;6006;49.696;8.662;2023-03-23T15:06:09;15.00;1.00
11894;DHT22;6006;49.696;8.662;2023-03-23T15:08:38;15.00;99.90
11894;DHT22;6006;49.696;8.662;2023-03-23T15:11:08;15.00;99.90
11894;DHT22;6006;49.696;8.662;2023-03-23T15:13:41;15.00;99.90
11894;DHT22;6006;49.696;8.662;2023-03-23T15:16:14;14.90;99.90
11894;DHT22;6006;49.696;8.662;2023-03-23T15:18:49;14.90;99.90
11894;DHT22;6006;49.696;8.662;2023-03-23T15:21:22;14.80;1.00
11894;DHT22;6006;49.696;8.662;2023-03-23T15:23:50;14.80;99.90
11894;DHT22;6006;49.696;8.662;2023-03-23T15:26:30;14.80;99.90
11894;DHT22;6006;49.696;8.662;2023-03-23T15:29:12;14.80;1.00
11894;DHT22;6006;49.696;8.662;2023-03-23T15:31:40;14.80;99.90
11894;DHT22;6006;49.696;8.662;2023-03-23T15:34:16;14.90;99.90
11894;DHT22;6006;49.696;8.662;2023-03-23T15:36:43;14.80;99.90
11894;DHT22;6006;49.696;8.662;2023-03-23T15:39:12;14.70;1.00
11894;DHT22;6006;49.696;8.662;2023-03-23T15:41:46;14.70;1.00
11894;DHT22;6006;49.696;8.662;2023-03-23T15:44:30;14.70;1.00
11894;DHT22;6006;49.696;8.662;2023-03-23T15:47:15;14.50;1.00
11894;DHT22;6006;49.696;8.662;2023-03-23T15:49:44;14.40;99.90
11894;DHT22;6006;49.696;8.662;2023-03-23T15:52:13;14.40;99.90
11894;DHT22;6006;49.696;8.662;2023-03-23T15:54:46;14.40;99.90
11894;DHT22;6006;49.696;8.662;2023-03-23T15:57:13;14.30;99.90
11894;DHT22;6006;49.696;8.662;2023-03-23T15:59:40;14.30;1.00
11894;DHT22;6006;49.696;8.662;2023-03-23T16:02:18;14.30;1.00
11894;DHT22;6006;49.696;8.662;2023-03-23T16:04:48;14.40;1.00
11894;DHT22;6006;49.696;8.662;2023-03-23T16:07:15;14.40;1.00
11894;DHT22;6006;49.696;8.662;2023-03-23T16:09:43;14.40;1.00
11894;DHT22;6006;49.696;8.662;2023-03-23T16:12:11;14.40;1.00
11894;DHT22;6006;49.696;8.662;2023-03-23T16:14:39;14.40;1.00
11894;DHT22;6006;49.696;8.662;2023-03-23T16:17:09;14.30;99.90
11894;DHT22;6006;49.696;8.662;2023-03-23T16:19:38;14.30;1.00
11894;DHT22;6006;49.696;8.662;2023-03-23T16:22:07;14.30;1.00
11894;DHT22;6006;49.696;8.662;2023-03-23T16:24:35;14.30;1.00